sensor_id;sensor_type;location;lat;lon;timestamp;P1;durP1;ratioP1;P2;durP2;ratioP2
2858;SDS011;1437;53.250;10.406;2022-10-31T00:02:05;13.83;;;10.00;;
2858;SDS011;1437;53.250;10.406;2022-10-31T00:04:32;16.13;;;11.23;;
2858;SDS011;1437;53.250;10.406;2022-10-31T00:07:00;12.67;;;8.83;;
2858;SDS011;1437;53.250;10.406;2022-10-31T00:09:27;11.70;;;8.80;;
2858;SDS011;1437;53.250;10.406;2022-10-31T00:11:54;16.73;;;10.80;;
2858;SDS011;1437;53.250;10.406;2022-10-31T00:14:21;13.40;;;9.00;;
2858;SDS011;1437;53.250;10.406;2022-10-31T00:16:49;15.50;;;10.33;;
2858;SDS011;1437;53.250;10.406;2022-10-31T00:19:16;18.70;;;10.63;;
2858;SDS011;1437;53.250;10.406;2022-10-31T00:21:43;15.30;;;10.83;;
2858;SDS011;1437;53.250;10.406;2022-10-31T00:24:11;12.83;;;9.57;;
2858;SDS011;1437;53.250;10.406;2022-10-31T00:26:38;18.10;;;11.07;;
2858;SDS011;1437;53.250;10.406;2022-10-31T00:29:05;18.33;;;9.93;;
2858;SDS011;1437;53.250;10.406;2022-10-31T00:31:32;21.33;;;9.80;;
2858;SDS011;1437;53.250;10.406;2022-10-31T00:33:59;11.87;;;9.30;;
2858;SDS011;1437;53.250;10.406;2022-10-31T00:36:28;15.47;;;10.40;;
2858;SDS011;1437;53.250;10.406;2022-10-31T00:38:55;13.17;;;10.20;;
2858;SDS011;1437;53.250;10.406;2022-10-31T00:41:23;18.43;;;9.73;;
2858;SDS011;1437;53.250;10.406;2022-10-31T00:43:50;11.00;;;8.87;;
2858;SDS011;1437;53.250;10.406;2022-10-31T00:46:17;12.37;;;9.40;;
2858;SDS011;1437;53.250;10.406;2022-10-31T00:48:44;15.90;;;9.50;;
2858;SDS011;1437;53.250;10.406;2022-10-31T00:51:14;12.60;;;9.50;;
2858;SDS011;1437;53.250;10.406;2022-10-31T00:53:41;17.77;;;9.67;;
2858;SDS011;1437;53.250;10.406;2022-10-31T00:56:08;18.50;;;10.17;;
2858;SDS011;1437;53.250;10.406;2022-10-31T00:58:36;16.93;;;8.20;;
2858;SDS011;1437;53.250;10.406;2022-10-31T01:01:03;16.40;;;10.07;;
2858;SDS011;1437;53.250;10.406;2022-10-31T01:03:33;12.80;;;9.00;;
2858;SDS011;1437;53.250;10.406;2022-10-31T01:06:00;17.90;;;9.00;;
2858;SDS011;1437;53.250;10.406;2022-10-31T01:08:28;18.97;;;10.33;;
2858;SDS011;1437;53.250;10.406;2022-10-31T01:10:59;17.93;;;9.33;;
2858;SDS011;1437;53.250;10.406;2022-10-31T01:13:26;13.80;;;9.37;;
2858;SDS011;1437;53.250;10.406;2022-10-31T01:15:54;18.10;;;8.50;;
2858;SDS011;1437;53.250;10.406;2022-10-31T01:18:21;11.43;;;8.60;;
2858;SDS011;1437;53.250;10.406;2022-10-31T01:20:56;13.40;;;8.57;;
2858;SDS011;1437;53.250;10.406;2022-10-31T01:23:23;16.13;;;9.07;;
2858;SDS011;1437;53.250;10.406;2022-10-31T01:25:58;12.23;;;7.37;;
2858;SDS011;1437;53.250;10.406;2022-10-31T01:28:25;12.47;;;8.90;;
2858;SDS011;1437;53.250;10.406;2022-10-31T01:30:52;10.20;;;8.03;;
2858;SDS011;1437;53.250;10.406;2022-10-31T01:33:20;14.33;;;9.13;;
2858;SDS011;1437;53.250;10.406;2022-10-31T01:35:47;14.97;;;8.23;;
2858;SDS011;1437;53.250;10.406;2022-10-31T01:38:14;9.60;;;8.27;;
2858;SDS011;1437;53.250;10.406;2022-10-31T01:40:40;17.03;;;10.80;;
2858;SDS011;1437;53.250;10.406;2022-10-31T01:43:09;17.90;;;9.50;;
2858;SDS011;1437;53.250;10.406;2022-10-31T01:45:38;11.50;;;7.80;;
2858;SDS011;1437;53.250;10.406;2022-10-31T01:48:06;13.57;;;8.20;;
2858;SDS011;1437;53.250;10.406;2022-10-31T01:50:42;12.00;;;9.17;;
2858;SDS011;1437;53.250;10.406;2022-10-31T01:53:10;10.63;;;7.73;;
2858;SDS011;1437;53.250;10.406;2022-10-31T01:55:38;12.73;;;7.57;;
2858;SDS011;1437;53.250;10.406;2022-10-31T01:58:07;14.33;;;8.53;;
2858;SDS011;1437;53.250;10.406;2022-10-31T02:00:35;10.67;;;8.10;;
2858;SDS011;1437;53.250;10.406;2022-10-31T02:03:02;10.90;;;7.67;;
2858;SDS011;1437;53.250;10.406;2022-10-31T02:05:29;14.53;;;9.10;;
2858;SDS011;1437;53.250;10.406;2022-10-31T02:07:58;12.90;;;8.70;;
2858;SDS011;1437;53.250;10.406;2022-10-31T02:10:26;12.77;;;7.73;;
2858;SDS011;1437;53.250;10.406;2022-10-31T02:12:54;13.57;;;8.83;;
2858;SDS011;1437;53.250;10.406;2022-10-31T02:15:29;16.03;;;9.20;;
2858;SDS011;1437;53.250;10.406;2022-10-31T02:17:59;15.73;;;9.40;;
2858;SDS011;1437;53.250;10.406;2022-10-31T02:20:27;14.73;;;8.63;;
2858;SDS011;1437;53.250;10.406;2022-10-31T02:23:13;15.30;;;9.63;;
2858;SDS011;1437;53.250;10.406;2022-10-31T02:25:50;19.77;;;10.30;;
2858;SDS011;1437;53.250;10.406;2022-10-31T02:28:25;17.90;;;9.93;;
2858;SDS011;1437;53.250;10.406;2022-10-31T02:31:07;14.20;;;9.43;;
2858;SDS011;1437;53.250;10.406;2022-10-31T02:33:41;21.23;;;9.63;;
2858;SDS011;1437;53.250;10.406;2022-10-31T02:36:10;16.10;;;9.50;;
2858;SDS011;1437;53.250;10.406;2022-10-31T02:38:41;24.13;;;10.27;;
2858;SDS011;1437;53.250;10.406;2022-10-31T02:41:10;19.30;;;9.17;;
2858;SDS011;1437;53.250;10.406;2022-10-31T02:43:43;23.57;;;11.53;;
2858;SDS011;1437;53.250;10.406;2022-10-31T02:46:13;19.70;;;12.07;;
2858;SDS011;1437;53.250;10.406;2022-10-31T02:48:43;23.20;;;12.00;;
2858;SDS011;1437;53.250;10.406;2022-10-31T02:51:11;19.30;;;11.07;;
2858;SDS011;1437;53.250;10.406;2022-10-31T02:53:41;21.43;;;12.90;;
2858;SDS011;1437;53.250;10.406;2022-10-31T02:56:09;25.80;;;14.13;;
2858;SDS011;1437;53.250;10.406;2022-10-31T02:58:39;23.47;;;13.00;;
2858;SDS011;1437;53.250;10.406;2022-10-31T03:01:14;23.63;;;13.40;;
2858;SDS011;1437;53.250;10.406;2022-10-31T03:03:48;19.67;;;11.23;;
2858;SDS011;1437;53.250;10.406;2022-10-31T03:06:20;30.40;;;14.53;;
2858;SDS011;1437;53.250;10.406;2022-10-31T03:08:50;23.00;;;14.40;;
2858;SDS011;1437;53.250;10.406;2022-10-31T03:11:19;23.77;;;15.20;;
2858;SDS011;1437;53.250;10.406;2022-10-31T03:13:49;24.23;;;14.77;;
2858;SDS011;1437;53.250;10.406;2022-10-31T03:16:26;24.30;;;16.00;;
2858;SDS011;1437;53.250;10.406;2022-10-31T03:18:56;27.77;;;14.70;;
2858;SDS011;1437;53.250;10.406;2022-10-31T03:21:25;24.20;;;14.73;;
2858;SDS011;1437;53.250;10.406;2022-10-31T03:23:53;27.33;;;16.17;;
2858;SDS011;1437;53.250;10.406;2022-10-31T03:26:21;26.80;;;16.20;;
2858;SDS011;1437;53.250;10.406;2022-10-31T03:28:50;33.83;;;20.50;;
2858;SDS011;1437;53.250;10.406;2022-10-31T03:31:18;33.87;;;17.53;;
2858;SDS011;1437;53.250;10.406;2022-10-31T03:33:46;38.50;;;18.17;;
2858;SDS011;1437;53.250;10.406;2022-10-31T03:36:14;32.87;;;19.00;;
2858;SDS011;1437;53.250;10.406;2022-10-31T03:38:45;29.50;;;16.73;;
2858;SDS011;1437;53.250;10.406;2022-10-31T03:41:13;40.30;;;18.60;;
2858;SDS011;1437;53.250;10.406;2022-10-31T03:43:42;32.53;;;18.00;;
2858;SDS011;1437;53.250;10.406;2022-10-31T03:46:10;31.57;;;19.30;;
2858;SDS011;1437;53.250;10.406;2022-10-31T03:48:37;30.90;;;18.73;;
2858;SDS011;1437;53.250;10.406;2022-10-31T03:51:06;44.33;;;21.27;;
2858;SDS011;1437;53.250;10.406;2022-10-31T03:53:38;30.43;;;19.50;;
2858;SDS011;1437;53.250;10.406;2022-10-31T03:56:07;35.43;;;20.37;;
2858;SDS011;1437;53.250;10.406;2022-10-31T03:58:36;33.50;;;21.37;;
2858;SDS011;1437;53.250;10.406;2022-10-31T04:01:05;31.47;;;19.33;;
2858;SDS011;1437;53.250;10.406;2022-10-31T04:03:33;39.53;;;21.77;;
2858;SDS011;1437;53.250;10.406;2022-10-31T04:06:02;45.67;;;21.60;;
2858;SDS011;1437;53.250;10.406;2022-10-31T04:08:36;37.50;;;20.87;;
2858;SDS011;1437;53.250;10.406;2022-10-31T04:11:04;38.17;;;20.10;;
2858;SDS011;1437;53.250;10.406;2022-10-31T04:13:32;37.87;;;22.90;;
2858;SDS011;1437;53.250;10.406;2022-10-31T04:16:00;28.93;;;18.90;;
2858;SDS011;1437;53.250;10.406;2022-10-31T04:18:27;41.60;;;21.80;;
2858;SDS011;1437;53.250;10.406;2022-10-31T04:21:00;34.97;;;21.13;;
2858;SDS011;1437;53.250;10.406;2022-10-31T04:23:27;43.90;;;20.23;;
2858;SDS011;1437;53.250;10.406;2022-10-31T04:25:55;48.00;;;24.50;;
2858;SDS011;1437;53.250;10.406;2022-10-31T04:28:22;37.60;;;21.10;;
2858;SDS011;1437;53.250;10.406;2022-10-31T04:30:49;33.77;;;20.67;;
2858;SDS011;1437;53.250;10.406;2022-10-31T04:33:17;40.00;;;20.63;;
2858;SDS011;1437;53.250;10.406;2022-10-31T04:35:44;33.77;;;21.77;;
2858;SDS011;1437;53.250;10.406;2022-10-31T04:38:11;37.40;;;22.33;;
2858;SDS011;1437;53.250;10.406;2022-10-31T04:40:38;48.43;;;21.43;;
2858;SDS011;1437;53.250;10.406;2022-10-31T04:43:06;36.17;;;20.10;;
2858;SDS011;1437;53.250;10.406;2022-10-31T04:45:33;44.03;;;21.87;;
2858;SDS011;1437;53.250;10.406;2022-10-31T04:48:00;47.90;;;21.50;;
2858;SDS011;1437;53.250;10.406;2022-10-31T04:50:27;36.63;;;21.87;;
2858;SDS011;1437;53.250;10.406;2022-10-31T04:52:54;37.77;;;21.90;;
2858;SDS011;1437;53.250;10.406;2022-10-31T04:55:21;41.47;;;20.83;;
2858;SDS011;1437;53.250;10.406;2022-10-31T04:57:48;36.77;;;23.73;;
2858;SDS011;1437;53.250;10.406;2022-10-31T05:00:17;41.70;;;21.23;;
2858;SDS011;1437;53.250;10.406;2022-10-31T05:02:44;40.93;;;20.07;;
2858;SDS011;1437;53.250;10.406;2022-10-31T05:05:12;38.37;;;22.40;;
2858;SDS011;1437;53.250;10.406;2022-10-31T05:07:39;40.17;;;22.47;;
2858;SDS011;1437;53.250;10.406;2022-10-31T05:10:07;38.33;;;20.23;;
2858;SDS011;1437;53.250;10.406;2022-10-31T05:12:35;31.83;;;19.37;;
2858;SDS011;1437;53.250;10.406;2022-10-31T05:15:02;37.23;;;20.00;;
2858;SDS011;1437;53.250;10.406;2022-10-31T05:17:30;37.50;;;21.20;;
2858;SDS011;1437;53.250;10.406;2022-10-31T05:19:57;38.20;;;20.30;;
2858;SDS011;1437;53.250;10.406;2022-10-31T05:22:24;41.33;;;21.30;;
2858;SDS011;1437;53.250;10.406;2022-10-31T05:24:51;36.63;;;19.70;;
2858;SDS011;1437;53.250;10.406;2022-10-31T05:27:20;38.40;;;20.23;;
2858;SDS011;1437;53.250;10.406;2022-10-31T05:29:47;38.00;;;20.50;;
2858;SDS011;1437;53.250;10.406;2022-10-31T05:32:14;38.93;;;21.93;;
2858;SDS011;1437;53.250;10.406;2022-10-31T05:34:42;40.30;;;20.10;;
2858;SDS011;1437;53.250;10.406;2022-10-31T05:37:09;40.47;;;23.10;;
2858;SDS011;1437;53.250;10.406;2022-10-31T05:39:36;49.23;;;21.23;;
2858;SDS011;1437;53.250;10.406;2022-10-31T05:42:03;62.60;;;22.10;;
2858;SDS011;1437;53.250;10.406;2022-10-31T05:44:30;36.83;;;20.83;;
2858;SDS011;1437;53.250;10.406;2022-10-31T05:46:57;36.73;;;19.63;;
2858;SDS011;1437;53.250;10.406;2022-10-31T05:49:24;43.03;;;21.70;;
2858;SDS011;1437;53.250;10.406;2022-10-31T05:51:51;38.77;;;20.47;;
2858;SDS011;1437;53.250;10.406;2022-10-31T05:54:18;31.20;;;19.00;;
2858;SDS011;1437;53.250;10.406;2022-10-31T05:56:48;38.30;;;22.87;;
2858;SDS011;1437;53.250;10.406;2022-10-31T05:59:15;38.87;;;20.27;;
2858;SDS011;1437;53.250;10.406;2022-10-31T06:01:42;35.73;;;19.43;;
2858;SDS011;1437;53.250;10.406;2022-10-31T06:04:09;36.37;;;19.23;;
2858;SDS011;1437;53.250;10.406;2022-10-31T06:06:36;37.67;;;20.43;;
2858;SDS011;1437;53.250;10.406;2022-10-31T06:09:04;42.63;;;20.07;;
2858;SDS011;1437;53.250;10.406;2022-10-31T06:11:31;39.93;;;19.17;;
2858;SDS011;1437;53.250;10.406;2022-10-31T06:13:58;36.03;;;16.83;;
2858;SDS011;1437;53.250;10.406;2022-10-31T06:16:25;39.33;;;20.33;;
2858;SDS011;1437;53.250;10.406;2022-10-31T06:18:52;34.47;;;18.10;;
2858;SDS011;1437;53.250;10.406;2022-10-31T06:21:19;36.93;;;20.10;;
2858;SDS011;1437;53.250;10.406;2022-10-31T06:23:46;34.30;;;17.97;;
2858;SDS011;1437;53.250;10.406;2022-10-31T06:26:13;32.77;;;18.40;;
2858;SDS011;1437;53.250;10.406;2022-10-31T06:28:40;30.20;;;17.57;;
2858;SDS011;1437;53.250;10.406;2022-10-31T06:31:08;29.03;;;18.10;;
2858;SDS011;1437;53.250;10.406;2022-10-31T06:33:34;34.97;;;19.40;;
2858;SDS011;1437;53.250;10.406;2022-10-31T06:36:01;33.30;;;17.70;;
2858;SDS011;1437;53.250;10.406;2022-10-31T06:38:28;32.50;;;16.50;;
2858;SDS011;1437;53.250;10.406;2022-10-31T06:40:55;36.93;;;18.87;;
2858;SDS011;1437;53.250;10.406;2022-10-31T06:43:23;29.17;;;18.80;;
2858;SDS011;1437;53.250;10.406;2022-10-31T06:45:50;42.87;;;19.50;;
2858;SDS011;1437;53.250;10.406;2022-10-31T06:48:17;36.07;;;16.87;;
2858;SDS011;1437;53.250;10.406;2022-10-31T06:50:44;36.50;;;17.77;;
2858;SDS011;1437;53.250;10.406;2022-10-31T06:53:11;30.60;;;17.03;;
2858;SDS011;1437;53.250;10.406;2022-10-31T06:55:39;30.70;;;17.73;;
2858;SDS011;1437;53.250;10.406;2022-10-31T06:58:08;32.03;;;15.80;;
2858;SDS011;1437;53.250;10.406;2022-10-31T07:00:36;31.30;;;16.23;;
2858;SDS011;1437;53.250;10.406;2022-10-31T07:03:04;36.40;;;16.27;;
2858;SDS011;1437;53.250;10.406;2022-10-31T07:05:31;32.17;;;16.00;;
2858;SDS011;1437;53.250;10.406;2022-10-31T07:07:59;31.13;;;15.90;;
2858;SDS011;1437;53.250;10.406;2022-10-31T07:10:27;33.13;;;16.70;;
2858;SDS011;1437;53.250;10.406;2022-10-31T07:12:58;26.07;;;17.73;;
2858;SDS011;1437;53.250;10.406;2022-10-31T07:15:26;31.10;;;15.50;;
2858;SDS011;1437;53.250;10.406;2022-10-31T07:17:58;31.87;;;15.87;;
2858;SDS011;1437;53.250;10.406;2022-10-31T07:20:26;38.53;;;17.07;;
2858;SDS011;1437;53.250;10.406;2022-10-31T07:22:53;23.13;;;14.97;;
2858;SDS011;1437;53.250;10.406;2022-10-31T07:25:20;29.50;;;15.97;;
2858;SDS011;1437;53.250;10.406;2022-10-31T07:27:47;30.00;;;15.53;;
2858;SDS011;1437;53.250;10.406;2022-10-31T07:30:14;25.07;;;15.23;;
2858;SDS011;1437;53.250;10.406;2022-10-31T07:32:47;28.00;;;14.80;;
2858;SDS011;1437;53.250;10.406;2022-10-31T07:35:22;31.90;;;15.50;;
2858;SDS011;1437;53.250;10.406;2022-10-31T07:37:49;25.70;;;15.30;;
2858;SDS011;1437;53.250;10.406;2022-10-31T07:40:19;25.03;;;13.73;;
2858;SDS011;1437;53.250;10.406;2022-10-31T07:42:48;24.90;;;14.37;;
2858;SDS011;1437;53.250;10.406;2022-10-31T07:45:16;25.97;;;14.40;;
2858;SDS011;1437;53.250;10.406;2022-10-31T07:47:43;30.30;;;14.47;;
2858;SDS011;1437;53.250;10.406;2022-10-31T07:50:13;28.90;;;14.57;;
2858;SDS011;1437;53.250;10.406;2022-10-31T07:52:41;24.03;;;15.00;;
2858;SDS011;1437;53.250;10.406;2022-10-31T07:55:09;34.00;;;14.20;;
2858;SDS011;1437;53.250;10.406;2022-10-31T07:57:36;25.33;;;14.50;;
2858;SDS011;1437;53.250;10.406;2022-10-31T08:00:07;27.43;;;14.13;;
2858;SDS011;1437;53.250;10.406;2022-10-31T08:02:34;24.57;;;13.70;;
2858;SDS011;1437;53.250;10.406;2022-10-31T08:05:01;24.07;;;13.00;;
2858;SDS011;1437;53.250;10.406;2022-10-31T08:07:35;23.13;;;12.47;;
2858;SDS011;1437;53.250;10.406;2022-10-31T08:10:04;25.83;;;13.03;;
2858;SDS011;1437;53.250;10.406;2022-10-31T08:12:31;23.83;;;12.80;;
2858;SDS011;1437;53.250;10.406;2022-10-31T08:14:58;24.47;;;12.53;;
2858;SDS011;1437;53.250;10.406;2022-10-31T08:17:25;25.03;;;15.20;;
2858;SDS011;1437;53.250;10.406;2022-10-31T08:19:56;22.47;;;11.90;;
2858;SDS011;1437;53.250;10.406;2022-10-31T08:22:23;21.53;;;12.57;;
2858;SDS011;1437;53.250;10.406;2022-10-31T08:24:50;22.47;;;12.03;;
2858;SDS011;1437;53.250;10.406;2022-10-31T08:27:17;20.60;;;12.60;;
2858;SDS011;1437;53.250;10.406;2022-10-31T08:29:44;23.13;;;11.90;;
2858;SDS011;1437;53.250;10.406;2022-10-31T08:32:12;24.30;;;12.10;;
2858;SDS011;1437;53.250;10.406;2022-10-31T08:34:41;20.00;;;11.73;;
2858;SDS011;1437;53.250;10.406;2022-10-31T08:37:08;22.23;;;12.47;;
2858;SDS011;1437;53.250;10.406;2022-10-31T08:39:35;22.13;;;12.40;;
2858;SDS011;1437;53.250;10.406;2022-10-31T08:42:02;23.07;;;11.60;;
2858;SDS011;1437;53.250;10.406;2022-10-31T08:44:36;20.40;;;10.10;;
2858;SDS011;1437;53.250;10.406;2022-10-31T08:47:03;18.60;;;9.50;;
2858;SDS011;1437;53.250;10.406;2022-10-31T08:49:30;23.37;;;12.17;;
2858;SDS011;1437;53.250;10.406;2022-10-31T08:51:57;14.93;;;9.67;;
2858;SDS011;1437;53.250;10.406;2022-10-31T08:54:24;18.03;;;9.50;;
2858;SDS011;1437;53.250;10.406;2022-10-31T08:56:53;17.50;;;10.60;;
2858;SDS011;1437;53.250;10.406;2022-10-31T08:59:23;18.87;;;10.40;;
2858;SDS011;1437;53.250;10.406;2022-10-31T09:01:51;19.23;;;11.13;;
2858;SDS011;1437;53.250;10.406;2022-10-31T09:04:18;15.77;;;10.17;;
2858;SDS011;1437;53.250;10.406;2022-10-31T09:06:45;21.60;;;10.27;;
2858;SDS011;1437;53.250;10.406;2022-10-31T09:09:12;19.90;;;10.47;;
2858;SDS011;1437;53.250;10.406;2022-10-31T09:11:38;18.73;;;10.03;;
2858;SDS011;1437;53.250;10.406;2022-10-31T09:14:05;21.07;;;9.20;;
2858;SDS011;1437;53.250;10.406;2022-10-31T09:16:35;14.83;;;9.73;;
2858;SDS011;1437;53.250;10.406;2022-10-31T09:19:03;19.87;;;11.20;;
2858;SDS011;1437;53.250;10.406;2022-10-31T09:21:30;25.80;;;10.63;;
2858;SDS011;1437;53.250;10.406;2022-10-31T09:23:57;19.57;;;9.50;;
2858;SDS011;1437;53.250;10.406;2022-10-31T09:26:24;16.47;;;9.40;;
2858;SDS011;1437;53.250;10.406;2022-10-31T09:28:51;20.07;;;10.87;;
2858;SDS011;1437;53.250;10.406;2022-10-31T09:31:21;14.53;;;8.73;;
2858;SDS011;1437;53.250;10.406;2022-10-31T09:33:49;16.60;;;8.63;;
2858;SDS011;1437;53.250;10.406;2022-10-31T09:36:19;14.67;;;8.20;;
2858;SDS011;1437;53.250;10.406;2022-10-31T09:38:48;18.13;;;8.90;;
2858;SDS011;1437;53.250;10.406;2022-10-31T09:41:17;10.90;;;6.53;;
2858;SDS011;1437;53.250;10.406;2022-10-31T09:43:49;13.60;;;7.43;;
2858;SDS011;1437;53.250;10.406;2022-10-31T09:46:20;17.43;;;8.27;;
2858;SDS011;1437;53.250;10.406;2022-10-31T09:48:52;14.17;;;7.77;;
2858;SDS011;1437;53.250;10.406;2022-10-31T09:51:24;16.33;;;7.90;;
2858;SDS011;1437;53.250;10.406;2022-10-31T09:53:55;11.63;;;8.10;;
2858;SDS011;1437;53.250;10.406;2022-10-31T09:56:24;13.40;;;8.37;;
2858;SDS011;1437;53.250;10.406;2022-10-31T09:58:54;13.23;;;8.17;;
2858;SDS011;1437;53.250;10.406;2022-10-31T10:01:38;14.10;;;7.03;;
2858;SDS011;1437;53.250;10.406;2022-10-31T10:04:10;15.10;;;7.57;;
2858;SDS011;1437;53.250;10.406;2022-10-31T10:06:46;14.10;;;7.07;;
2858;SDS011;1437;53.250;10.406;2022-10-31T10:09:13;12.23;;;7.23;;
2858;SDS011;1437;53.250;10.406;2022-10-31T10:11:45;11.90;;;6.20;;
2858;SDS011;1437;53.250;10.406;2022-10-31T10:14:21;12.63;;;6.87;;
2858;SDS011;1437;53.250;10.406;2022-10-31T10:16:56;13.57;;;6.90;;
2858;SDS011;1437;53.250;10.406;2022-10-31T10:19:30;13.70;;;7.70;;
2858;SDS011;1437;53.250;10.406;2022-10-31T10:22:02;11.50;;;6.10;;
2858;SDS011;1437;53.250;10.406;2022-10-31T10:24:36;14.50;;;6.70;;
2858;SDS011;1437;53.250;10.406;2022-10-31T10:27:10;11.20;;;7.10;;
2858;SDS011;1437;53.250;10.406;2022-10-31T10:29:40;10.63;;;6.77;;
2858;SDS011;1437;53.250;10.406;2022-10-31T10:32:09;9.23;;;6.30;;
2858;SDS011;1437;53.250;10.406;2022-10-31T10:34:39;10.60;;;7.73;;
2858;SDS011;1437;53.250;10.406;2022-10-31T10:37:12;13.77;;;6.20;;
2858;SDS011;1437;53.250;10.406;2022-10-31T10:39:41;10.40;;;6.33;;
2858;SDS011;1437;53.250;10.406;2022-10-31T10:42:09;9.60;;;5.83;;
2858;SDS011;1437;53.250;10.406;2022-10-31T10:44:56;9.43;;;5.70;;
2858;SDS011;1437;53.250;10.406;2022-10-31T10:47:48;10.93;;;5.70;;
2858;SDS011;1437;53.250;10.406;2022-10-31T10:50:19;13.90;;;7.43;;
2858;SDS011;1437;53.250;10.406;2022-10-31T10:52:50;11.63;;;6.67;;
2858;SDS011;1437;53.250;10.406;2022-10-31T10:55:22;10.60;;;5.90;;
2858;SDS011;1437;53.250;10.406;2022-10-31T10:57:55;12.63;;;6.30;;
2858;SDS011;1437;53.250;10.406;2022-10-31T11:00:23;10.70;;;5.90;;
2858;SDS011;1437;53.250;10.406;2022-10-31T11:02:51;10.53;;;6.33;;
2858;SDS011;1437;53.250;10.406;2022-10-31T11:05:22;11.67;;;5.40;;
2858;SDS011;1437;53.250;10.406;2022-10-31T11:07:50;9.90;;;6.30;;
2858;SDS011;1437;53.250;10.406;2022-10-31T11:10:18;9.10;;;5.40;;
2858;SDS011;1437;53.250;10.406;2022-10-31T11:12:46;10.27;;;5.40;;
2858;SDS011;1437;53.250;10.406;2022-10-31T11:15:24;10.30;;;4.83;;
2858;SDS011;1437;53.250;10.406;2022-10-31T11:17:52;9.33;;;5.37;;
2858;SDS011;1437;53.250;10.406;2022-10-31T11:20:26;11.20;;;5.60;;
2858;SDS011;1437;53.250;10.406;2022-10-31T11:23:01;7.93;;;5.30;;
2858;SDS011;1437;53.250;10.406;2022-10-31T11:25:35;11.17;;;5.40;;
2858;SDS011;1437;53.250;10.406;2022-10-31T11:28:03;10.17;;;5.20;;
2858;SDS011;1437;53.250;10.406;2022-10-31T11:30:30;8.83;;;5.33;;
2858;SDS011;1437;53.250;10.406;2022-10-31T11:33:02;10.50;;;4.57;;
2858;SDS011;1437;53.250;10.406;2022-10-31T11:35:29;7.17;;;4.20;;
2858;SDS011;1437;53.250;10.406;2022-10-31T11:37:56;9.77;;;4.80;;
2858;SDS011;1437;53.250;10.406;2022-10-31T11:40:27;8.30;;;5.53;;
2858;SDS011;1437;53.250;10.406;2022-10-31T11:42:55;9.33;;;5.30;;
2858;SDS011;1437;53.250;10.406;2022-10-31T11:45:28;6.80;;;4.27;;
2858;SDS011;1437;53.250;10.406;2022-10-31T11:47:57;6.53;;;5.10;;
2858;SDS011;1437;53.250;10.406;2022-10-31T11:50:34;8.70;;;4.60;;
2858;SDS011;1437;53.250;10.406;2022-10-31T11:53:02;7.93;;;4.50;;
2858;SDS011;1437;53.250;10.406;2022-10-31T11:55:31;9.90;;;5.60;;
2858;SDS011;1437;53.250;10.406;2022-10-31T11:57:59;7.47;;;4.10;;
2858;SDS011;1437;53.250;10.406;2022-10-31T12:00:27;7.47;;;4.13;;
2858;SDS011;1437;53.250;10.406;2022-10-31T12:03:04;9.33;;;5.20;;
2858;SDS011;1437;53.250;10.406;2022-10-31T12:05:32;8.60;;;4.40;;
2858;SDS011;1437;53.250;10.406;2022-10-31T12:08:00;8.10;;;4.10;;
2858;SDS011;1437;53.250;10.406;2022-10-31T12:10:29;10.43;;;5.60;;
2858;SDS011;1437;53.250;10.406;2022-10-31T12:13:02;5.47;;;3.93;;
2858;SDS011;1437;53.250;10.406;2022-10-31T12:15:33;10.80;;;5.73;;
2858;SDS011;1437;53.250;10.406;2022-10-31T12:20:55;6.53;;;5.20;;
2858;SDS011;1437;53.250;10.406;2022-10-31T12:23:28;8.17;;;4.37;;
2858;SDS011;1437;53.250;10.406;2022-10-31T12:26:00;9.30;;;4.83;;
2858;SDS011;1437;53.250;10.406;2022-10-31T12:28:44;8.10;;;4.40;;
2858;SDS011;1437;53.250;10.406;2022-10-31T12:31:16;7.83;;;4.63;;
2858;SDS011;1437;53.250;10.406;2022-10-31T12:33:50;11.43;;;5.60;;
2858;SDS011;1437;53.250;10.406;2022-10-31T12:36:35;15.57;;;6.33;;
2858;SDS011;1437;53.250;10.406;2022-10-31T12:39:23;7.40;;;4.40;;
2858;SDS011;1437;53.250;10.406;2022-10-31T12:41:51;9.57;;;4.87;;
2858;SDS011;1437;53.250;10.406;2022-10-31T12:47:08;5.97;;;3.57;;
2858;SDS011;1437;53.250;10.406;2022-10-31T12:49:42;9.83;;;3.43;;
2858;SDS011;1437;53.250;10.406;2022-10-31T12:52:19;5.00;;;3.00;;
2858;SDS011;1437;53.250;10.406;2022-10-31T12:54:52;5.43;;;3.60;;
2858;SDS011;1437;53.250;10.406;2022-10-31T12:57:26;6.77;;;4.60;;
2858;SDS011;1437;53.250;10.406;2022-10-31T12:59:56;11.77;;;5.30;;
2858;SDS011;1437;53.250;10.406;2022-10-31T13:02:29;6.40;;;3.90;;
2858;SDS011;1437;53.250;10.406;2022-10-31T13:05:00;6.50;;;4.60;;
2858;SDS011;1437;53.250;10.406;2022-10-31T13:07:33;11.00;;;6.30;;
2858;SDS011;1437;53.250;10.406;2022-10-31T13:10:04;6.90;;;4.10;;
2858;SDS011;1437;53.250;10.406;2022-10-31T13:12:32;6.50;;;4.10;;
2858;SDS011;1437;53.250;10.406;2022-10-31T13:15:03;7.27;;;3.77;;
2858;SDS011;1437;53.250;10.406;2022-10-31T13:17:33;8.67;;;4.07;;
2858;SDS011;1437;53.250;10.406;2022-10-31T13:20:11;7.00;;;4.70;;
2858;SDS011;1437;53.250;10.406;2022-10-31T13:22:40;6.00;;;4.07;;
2858;SDS011;1437;53.250;10.406;2022-10-31T13:25:10;5.97;;;3.90;;
2858;SDS011;1437;53.250;10.406;2022-10-31T13:27:43;7.60;;;3.00;;
2858;SDS011;1437;53.250;10.406;2022-10-31T13:30:12;8.03;;;4.50;;
2858;SDS011;1437;53.250;10.406;2022-10-31T13:32:44;10.63;;;4.40;;
2858;SDS011;1437;53.250;10.406;2022-10-31T13:35:13;9.07;;;4.37;;
2858;SDS011;1437;53.250;10.406;2022-10-31T13:37:44;8.43;;;4.20;;
2858;SDS011;1437;53.250;10.406;2022-10-31T13:40:18;6.00;;;4.10;;
2858;SDS011;1437;53.250;10.406;2022-10-31T13:42:50;8.90;;;3.90;;
2858;SDS011;1437;53.250;10.406;2022-10-31T13:45:19;5.37;;;3.80;;
2858;SDS011;1437;53.250;10.406;2022-10-31T13:47:59;8.27;;;4.47;;
2858;SDS011;1437;53.250;10.406;2022-10-31T13:50:37;7.77;;;4.27;;
2858;SDS011;1437;53.250;10.406;2022-10-31T13:53:11;8.00;;;5.10;;
2858;SDS011;1437;53.250;10.406;2022-10-31T13:59:04;7.40;;;3.97;;
2858;SDS011;1437;53.250;10.406;2022-10-31T14:01:31;8.37;;;4.40;;
2858;SDS011;1437;53.250;10.406;2022-10-31T14:04:02;7.97;;;4.50;;
2858;SDS011;1437;53.250;10.406;2022-10-31T14:06:34;9.37;;;4.73;;
2858;SDS011;1437;53.250;10.406;2022-10-31T14:09:02;12.00;;;4.17;;
2858;SDS011;1437;53.250;10.406;2022-10-31T14:11:30;8.40;;;4.50;;
2858;SDS011;1437;53.250;10.406;2022-10-31T14:13:57;12.17;;;4.40;;
2858;SDS011;1437;53.250;10.406;2022-10-31T14:16:25;6.03;;;3.80;;
2858;SDS011;1437;53.250;10.406;2022-10-31T14:18:57;6.80;;;4.20;;
2858;SDS011;1437;53.250;10.406;2022-10-31T14:21:30;8.80;;;3.77;;
2858;SDS011;1437;53.250;10.406;2022-10-31T14:23:58;10.40;;;4.57;;
2858;SDS011;1437;53.250;10.406;2022-10-31T14:26:33;6.93;;;4.20;;
2858;SDS011;1437;53.250;10.406;2022-10-31T14:29:02;7.87;;;4.30;;
2858;SDS011;1437;53.250;10.406;2022-10-31T14:31:31;9.03;;;3.70;;
2858;SDS011;1437;53.250;10.406;2022-10-31T14:34:00;8.87;;;4.97;;
2858;SDS011;1437;53.250;10.406;2022-10-31T14:36:29;9.43;;;3.80;;
2858;SDS011;1437;53.250;10.406;2022-10-31T14:39:00;8.20;;;4.17;;
2858;SDS011;1437;53.250;10.406;2022-10-31T14:41:33;9.93;;;4.77;;
2858;SDS011;1437;53.250;10.406;2022-10-31T14:46:47;5.73;;;4.23;;
2858;SDS011;1437;53.250;10.406;2022-10-31T14:49:25;7.63;;;5.10;;
2858;SDS011;1437;53.250;10.406;2022-10-31T14:51:54;7.20;;;4.90;;
2858;SDS011;1437;53.250;10.406;2022-10-31T14:54:25;10.13;;;4.87;;
2858;SDS011;1437;53.250;10.406;2022-10-31T14:56:55;14.10;;;6.37;;
2858;SDS011;1437;53.250;10.406;2022-10-31T14:59:24;9.20;;;4.60;;
2858;SDS011;1437;53.250;10.406;2022-10-31T15:01:54;8.73;;;5.50;;
2858;SDS011;1437;53.250;10.406;2022-10-31T15:04:24;12.27;;;6.30;;
2858;SDS011;1437;53.250;10.406;2022-10-31T15:06:53;8.57;;;5.80;;
2858;SDS011;1437;53.250;10.406;2022-10-31T15:09:23;9.43;;;6.20;;